createdAt,value
2022-07-29T00:01:02.634Z,1.85
2022-07-29T00:03:30.996Z,1.85
2022-07-29T00:05:57.673Z,1.55
2022-07-29T00:08:24.359Z,1.70
2022-07-29T00:10:52.164Z,1.90
2022-07-29T00:13:18.773Z,1.83
2022-07-29T00:15:59.084Z,1.80
2022-07-29T00:18:31.643Z,1.42
2022-07-29T00:20:58.315Z,1.90
2022-07-29T00:23:25.023Z,1.90
2022-07-29T00:25:51.656Z,1.98
2022-07-29T00:28:21.065Z,1.80
2022-07-29T00:30:48.044Z,1.95
2022-07-29T00:33:14.787Z,1.95
2022-07-29T00:35:41.420Z,1.70
2022-07-29T00:38:08.118Z,1.88
2022-07-29T00:40:34.884Z,1.70
2022-07-29T00:43:01.492Z,1.40
2022-07-29T00:45:28.238Z,1.48
2022-07-29T00:47:54.891Z,1.90
2022-07-29T00:50:21.893Z,1.60
2022-07-29T00:52:48.544Z,2.00
2022-07-29T00:55:16.060Z,1.90
2022-07-29T00:57:43.177Z,1.67
2022-07-29T01:00:12.833Z,1.98
2022-07-29T01:02:39.535Z,1.75
2022-07-29T01:05:06.537Z,1.92
2022-07-29T01:07:34.372Z,1.70
2022-07-29T01:10:00.979Z,1.92
2022-07-29T01:12:28.227Z,1.98
2022-07-29T01:14:55.209Z,1.60
2022-07-29T01:17:40.373Z,1.92
2022-07-29T01:20:56.625Z,1.58
2022-07-29T01:23:41.130Z,1.88
2022-07-29T01:26:16.610Z,2.30
2022-07-29T01:29:11.919Z,1.73
2022-07-29T01:31:59.578Z,1.80
2022-07-29T01:34:42.748Z,2.15
2022-07-29T01:37:29.554Z,1.90
2022-07-29T01:39:57.308Z,2.00
2022-07-29T01:42:59.212Z,1.58
2022-07-29T01:45:30.753Z,1.90
2022-07-29T01:48:07.924Z,2.22
2022-07-29T01:50:36.071Z,2.15
2022-07-29T01:53:06.546Z,1.88
2022-07-29T01:55:36.209Z,1.77
2022-07-29T01:58:04.338Z,1.80
2022-07-29T02:00:31.121Z,1.60
2022-07-29T02:02:57.840Z,1.73
2022-07-29T02:05:24.690Z,1.85
2022-07-29T02:07:51.496Z,1.80
2022-07-29T02:10:19.637Z,1.90
2022-07-29T02:12:52.672Z,1.90
2022-07-29T02:15:19.711Z,1.90
2022-07-29T02:17:55.654Z,2.10
2022-07-29T02:20:23.316Z,1.70
2022-07-29T02:22:49.981Z,1.88
2022-07-29T02:25:16.632Z,2.17
2022-07-29T02:27:44.263Z,2.20
2022-07-29T02:30:11.070Z,1.95
2022-07-29T02:32:38.557Z,1.92
2022-07-29T02:35:07.920Z,1.60
2022-07-29T02:37:34.591Z,2.05
2022-07-29T02:40:01.651Z,2.00
2022-07-29T02:42:28.468Z,1.83
2022-07-29T02:44:56.542Z,1.90
2022-07-29T02:47:41.373Z,1.80
2022-07-29T02:52:46.400Z,1.67
2022-07-29T02:55:33.572Z,1.80
2022-07-29T02:58:14.622Z,1.70
2022-07-29T03:00:41.396Z,1.67
2022-07-29T03:03:10.037Z,1.85
2022-07-29T03:05:36.917Z,1.90
2022-07-29T03:08:06.120Z,2.00
2022-07-29T03:10:32.881Z,1.88
2022-07-29T03:13:00.123Z,2.08
2022-07-29T03:15:26.831Z,2.10
2022-07-29T03:17:53.507Z,1.98
2022-07-29T03:20:20.190Z,1.75
2022-07-29T03:22:46.897Z,1.92
2022-07-29T03:25:17.820Z,1.95
2022-07-29T03:27:44.423Z,1.75
2022-07-29T03:30:11.828Z,1.95
2022-07-29T03:32:38.606Z,2.10
2022-07-29T03:35:07.604Z,2.17
2022-07-29T03:37:34.255Z,1.95
2022-07-29T03:40:01.611Z,1.85
2022-07-29T03:42:34.189Z,1.90
2022-07-29T03:45:06.633Z,1.90
2022-07-29T03:47:49.557Z,1.70
2022-07-29T03:50:17.228Z,1.80
2022-07-29T03:52:45.497Z,1.95
2022-07-29T03:55:12.302Z,2.15
2022-07-29T03:57:39.141Z,2.17
2022-07-29T04:00:06.174Z,2.00
2022-07-29T04:02:33.522Z,2.03
2022-07-29T04:05:00.350Z,1.85
2022-07-29T04:07:27.150Z,1.80
2022-07-29T04:09:53.798Z,1.70
2022-07-29T04:12:20.493Z,2.15
2022-07-29T04:14:47.243Z,2.17
2022-07-29T04:17:14.020Z,2.10
2022-07-29T04:19:40.616Z,1.95
2022-07-29T04:22:07.390Z,2.10
2022-07-29T04:24:35.294Z,2.05
2022-07-29T04:27:02.380Z,2.00
2022-07-29T04:29:29.026Z,1.85
2022-07-29T04:31:55.683Z,2.10
2022-07-29T04:34:22.435Z,2.03
2022-07-29T04:36:49.159Z,1.75
2022-07-29T04:39:20.710Z,1.60
2022-07-29T04:41:49.705Z,2.05
2022-07-29T04:44:19.003Z,1.80
2022-07-29T04:46:46.129Z,1.95
2022-07-29T04:49:13.457Z,1.73
2022-07-29T04:51:40.195Z,1.90
2022-07-29T04:54:06.981Z,1.70
2022-07-29T04:56:34.454Z,1.70
2022-07-29T04:59:01.149Z,1.80
2022-07-29T05:01:27.919Z,1.70
2022-07-29T05:03:59.896Z,1.60
2022-07-29T05:06:27.169Z,1.90
2022-07-29T05:08:53.887Z,1.92
2022-07-29T05:11:22.429Z,2.05
2022-07-29T05:13:50.833Z,1.90
2022-07-29T05:16:17.616Z,1.80
2022-07-29T05:18:44.430Z,1.98
2022-07-29T05:21:11.129Z,2.03
2022-07-29T05:23:37.797Z,1.98
2022-07-29T05:26:04.441Z,2.17
2022-07-29T05:28:34.806Z,1.83
2022-07-29T05:31:01.720Z,1.88
2022-07-29T05:33:35.606Z,1.88
2022-07-29T05:36:05.005Z,2.20
2022-07-29T05:38:31.778Z,2.10
2022-07-29T05:40:59.403Z,1.90
2022-07-29T05:43:28.385Z,1.85
2022-07-29T05:45:55.186Z,2.50
2022-07-29T05:48:23.363Z,1.95
2022-07-29T05:50:50.071Z,2.08
2022-07-29T05:53:19.566Z,1.77
2022-07-29T05:55:49.262Z,2.13
2022-07-29T05:58:15.939Z,2.35
2022-07-29T06:00:42.977Z,1.80
2022-07-29T06:03:09.728Z,2.90
2022-07-29T06:05:37.414Z,2.35
2022-07-29T06:08:04.245Z,2.17
2022-07-29T06:10:30.989Z,2.20
2022-07-29T06:12:59.187Z,2.10
2022-07-29T06:15:26.009Z,1.77
2022-07-29T06:17:59.018Z,1.75
2022-07-29T06:20:28.677Z,2.05
2022-07-29T06:22:55.395Z,1.60
2022-07-29T06:25:22.284Z,1.95
2022-07-29T06:27:48.954Z,2.00
2022-07-29T06:30:15.650Z,2.42
2022-07-29T06:32:43.415Z,2.08
2022-07-29T06:35:37.996Z,1.98
2022-07-29T06:37:59.597Z,1.90
2022-07-29T06:40:27.296Z,2.10
2022-07-29T06:42:55.963Z,2.00
2022-07-29T06:45:22.704Z,1.95
2022-07-29T06:47:49.762Z,1.98
2022-07-29T06:50:16.479Z,4.90
2022-07-29T06:52:43.487Z,2.30
2022-07-29T06:55:10.526Z,2.05
2022-07-29T06:57:54.344Z,2.20
2022-07-29T07:00:21.048Z,2.10
2022-07-29T07:02:47.715Z,1.95
2022-07-29T07:05:14.568Z,1.92
2022-07-29T07:07:41.285Z,1.70
2022-07-29T07:10:08.353Z,1.95
2022-07-29T07:12:35.029Z,1.70
2022-07-29T07:15:01.748Z,1.83
2022-07-29T07:17:28.441Z,1.80
2022-07-29T07:19:55.181Z,1.98
2022-07-29T07:22:22.365Z,1.98
2022-07-29T07:24:49.174Z,2.00
2022-07-29T07:27:15.849Z,1.90
2022-07-29T07:29:44.340Z,1.80
2022-07-29T07:32:11.278Z,1.75
2022-07-29T07:34:37.951Z,1.80
2022-07-29T07:37:04.533Z,1.90
2022-07-29T07:39:31.167Z,1.65
2022-07-29T07:41:57.835Z,1.48
2022-07-29T07:44:25.469Z,1.55
2022-07-29T07:46:52.264Z,1.90
2022-07-29T07:49:19.651Z,1.98
2022-07-29T07:51:50.621Z,1.50
2022-07-29T07:54:19.151Z,1.42
2022-07-29T07:56:47.766Z,1.55
2022-07-29T07:59:17.601Z,1.65
2022-07-29T08:01:55.097Z,1.70
2022-07-29T08:04:27.314Z,1.70
2022-07-29T08:06:55.728Z,1.63
2022-07-29T08:09:29.134Z,1.92
2022-07-29T08:11:57.643Z,1.60
2022-07-29T08:14:24.725Z,1.40
2022-07-29T08:16:51.444Z,1.40
2022-07-29T08:19:18.095Z,1.60
2022-07-29T08:21:44.804Z,1.55
2022-07-29T08:24:11.604Z,1.38
2022-07-29T08:26:38.286Z,1.27
2022-07-29T08:29:05.254Z,1.20
2022-07-29T08:31:32.038Z,1.48
2022-07-29T08:33:59.006Z,1.33
2022-07-29T08:36:25.771Z,1.20
2022-07-29T08:38:52.602Z,1.38
2022-07-29T08:41:20.004Z,1.38
2022-07-29T08:43:47.795Z,1.42
2022-07-29T08:46:14.455Z,1.30
2022-07-29T08:48:41.930Z,1.40
2022-07-29T08:51:08.839Z,1.42
2022-07-29T08:53:37.211Z,1.20
2022-07-29T08:56:03.946Z,1.02
2022-07-29T08:58:33.177Z,1.58
2022-07-29T09:01:03.845Z,1.30
2022-07-29T09:03:33.966Z,1.30
2022-07-29T09:06:00.825Z,1.05
2022-07-29T09:08:31.004Z,1.27
2022-07-29T09:10:57.675Z,1.00
2022-07-29T09:13:24.368Z,1.15
2022-07-29T09:15:50.993Z,1.10
2022-07-29T09:18:41.344Z,1.10
2022-07-29T09:21:09.317Z,1.05
2022-07-29T09:23:35.984Z,1.15
2022-07-29T09:26:06.106Z,1.00
2022-07-29T09:28:32.762Z,1.10
2022-07-29T09:30:59.506Z,1.10
2022-07-29T09:33:32.793Z,1.00
2022-07-29T09:36:09.563Z,1.20
2022-07-29T09:38:37.986Z,0.95
2022-07-29T09:41:05.880Z,1.20
2022-07-29T09:43:33.261Z,0.98
2022-07-29T09:46:13.278Z,1.00
2022-07-29T09:48:40.087Z,0.90
2022-07-29T09:51:06.934Z,1.10
2022-07-29T09:53:37.172Z,0.95
2022-07-29T09:56:05.273Z,0.95
2022-07-29T09:58:32.058Z,0.98
2022-07-29T10:00:58.811Z,1.23
2022-07-29T10:03:25.722Z,0.93
2022-07-29T10:06:18.828Z,0.70
2022-07-29T10:08:45.539Z,0.90
2022-07-29T10:11:12.931Z,0.90
2022-07-29T10:13:39.825Z,1.05
2022-07-29T10:16:07.036Z,0.93
2022-07-29T10:18:33.912Z,1.00
2022-07-29T10:21:00.883Z,1.08
2022-07-29T10:23:28.356Z,0.85
2022-07-29T10:25:55.274Z,1.00
2022-07-29T10:28:21.974Z,1.00
2022-07-29T10:30:50.818Z,1.02
2022-07-29T10:34:07.845Z,1.00
2022-07-29T10:36:39.958Z,0.82
2022-07-29T10:39:25.886Z,1.00
2022-07-29T10:42:12.629Z,1.08
2022-07-29T10:44:42.946Z,1.00
2022-07-29T10:47:09.717Z,1.05
2022-07-29T10:49:36.616Z,1.10
2022-07-29T10:52:10.765Z,1.10
2022-07-29T10:54:44.810Z,0.90
2022-07-29T10:57:53.042Z,0.90
2022-07-29T11:00:28.199Z,0.98
2022-07-29T11:02:55.315Z,1.05
2022-07-29T11:05:22.070Z,0.98
2022-07-29T11:08:20.157Z,0.95
2022-07-29T11:10:51.998Z,0.80
2022-07-29T11:13:44.552Z,0.77
2022-07-29T11:16:13.566Z,0.77
2022-07-29T11:19:14.019Z,0.80
2022-07-29T11:21:53.786Z,0.90
2022-07-29T11:24:28.805Z,0.90
2022-07-29T11:27:20.100Z,0.83
2022-07-29T11:29:53.804Z,0.77
2022-07-29T11:32:24.236Z,0.85
2022-07-29T11:35:17.107Z,0.82
2022-07-29T11:37:52.161Z,0.63
2022-07-29T11:40:21.894Z,0.63
2022-07-29T11:42:48.891Z,0.60
2022-07-29T11:45:42.877Z,0.70
2022-07-29T11:48:29.388Z,0.77
2022-07-29T11:50:53.534Z,0.80
2022-07-29T11:53:20.240Z,0.50
2022-07-29T11:55:51.356Z,0.80
2022-07-29T11:58:22.780Z,0.68
2022-07-29T12:00:52.031Z,0.60
2022-07-29T12:06:15.489Z,0.80
2022-07-29T12:07:02.500Z,0.65
2022-07-29T12:08:45.225Z,0.75
2022-07-29T12:11:21.627Z,0.70
2022-07-29T12:13:49.290Z,0.70
2022-07-29T12:16:16.371Z,0.50
2022-07-29T12:19:02.108Z,0.73
2022-07-29T12:21:31.027Z,0.55
2022-07-29T12:24:04.797Z,0.80
2022-07-29T12:26:35.895Z,0.85
2022-07-29T12:29:03.303Z,0.60
2022-07-29T12:31:43.256Z,0.75
2022-07-29T12:34:14.718Z,0.70
2022-07-29T12:36:44.824Z,0.68
2022-07-29T12:39:11.639Z,0.88
2022-07-29T12:41:38.395Z,0.60
2022-07-29T12:44:05.324Z,0.65
2022-07-29T12:46:32.033Z,0.55
2022-07-29T12:48:58.760Z,0.85
2022-07-29T12:51:32.536Z,0.70
2022-07-29T12:54:06.997Z,0.82
2022-07-29T12:56:44.117Z,0.70
2022-07-29T12:59:22.680Z,0.60
2022-07-29T13:01:50.788Z,0.70
2022-07-29T13:04:32.334Z,0.70
2022-07-29T13:07:02.059Z,0.63
2022-07-29T13:09:46.848Z,0.73
2022-07-29T13:12:14.168Z,0.80
2022-07-29T13:14:45.529Z,0.77
2022-07-29T13:17:13.974Z,0.65
2022-07-29T13:19:40.430Z,0.70
2022-07-29T13:22:08.333Z,0.70
2022-07-29T13:24:35.145Z,1.08
2022-07-29T13:27:01.877Z,1.02
2022-07-29T13:29:32.181Z,0.90
2022-07-29T13:31:59.246Z,0.95
2022-07-29T13:34:26.327Z,0.90
2022-07-29T13:36:52.975Z,0.80
2022-07-29T13:39:19.665Z,0.70
2022-07-29T13:41:46.764Z,0.88
2022-07-29T13:44:13.478Z,0.82
2022-07-29T13:46:40.247Z,0.80
2022-07-29T13:49:07.008Z,0.80
2022-07-29T13:51:33.781Z,1.00
2022-07-29T13:54:00.368Z,0.90
2022-07-29T13:56:28.604Z,0.95
2022-07-29T13:58:55.225Z,1.08
2022-07-29T14:01:21.906Z,0.73
2022-07-29T14:03:48.546Z,0.85
2022-07-29T14:06:15.205Z,0.90
2022-07-29T14:08:41.946Z,0.90
2022-07-29T14:11:08.627Z,0.98
2022-07-29T14:13:35.767Z,0.98
2022-07-29T14:16:02.528Z,0.98
2022-07-29T14:18:29.148Z,0.93
2022-07-29T14:20:55.751Z,1.00
2022-07-29T14:23:23.481Z,1.00
2022-07-29T14:25:50.238Z,0.98
2022-07-29T14:28:16.971Z,0.80
2022-07-29T14:30:43.649Z,1.00
2022-07-29T14:33:11.367Z,0.77
2022-07-29T14:35:37.969Z,0.90
2022-07-29T14:38:04.623Z,0.63
2022-07-29T14:40:31.275Z,0.85
2022-07-29T14:42:57.989Z,0.90
2022-07-29T14:45:24.629Z,0.70
2022-07-29T14:47:51.257Z,1.20
2022-07-29T14:50:31.386Z,0.90
2022-07-29T14:52:58.284Z,0.73
2022-07-29T14:55:24.916Z,0.75
2022-07-29T14:57:51.509Z,0.77
2022-07-29T15:00:18.305Z,1.20
2022-07-29T15:03:02.225Z,1.05
2022-07-29T15:05:30.011Z,0.82
2022-07-29T15:07:56.699Z,0.75
2022-07-29T15:13:13.354Z,0.80
2022-07-29T15:15:40.004Z,0.77
2022-07-29T15:18:06.605Z,0.88
2022-07-29T15:20:33.281Z,0.98
2022-07-29T15:22:59.969Z,1.13
2022-07-29T15:25:28.223Z,0.80
2022-07-29T15:28:00.574Z,1.10
2022-07-29T15:30:32.951Z,1.20
2022-07-29T15:33:03.752Z,1.30
2022-07-29T15:35:30.463Z,1.33
2022-07-29T15:37:57.087Z,1.05
2022-07-29T15:40:23.695Z,1.13
2022-07-29T15:42:50.771Z,1.00
2022-07-29T15:45:20.426Z,1.08
2022-07-29T15:47:47.041Z,1.15
2022-07-29T15:50:13.808Z,1.05
2022-07-29T15:52:40.529Z,1.15
2022-07-29T15:55:09.301Z,1.00
2022-07-29T15:57:36.204Z,1.00
2022-07-29T16:00:04.870Z,1.02
2022-07-29T16:02:31.673Z,1.00
2022-07-29T16:04:58.415Z,1.20
2022-07-29T16:07:25.466Z,1.13
2022-07-29T16:09:58.117Z,1.00
2022-07-29T16:12:25.100Z,1.00
2022-07-29T16:14:51.831Z,0.98
2022-07-29T16:17:18.730Z,1.08
2022-07-29T16:19:45.531Z,1.00
2022-07-29T16:22:12.312Z,1.00
2022-07-29T16:24:39.344Z,0.90
2022-07-29T16:27:06.089Z,1.00
2022-07-29T16:29:33.149Z,1.13
2022-07-29T16:32:01.321Z,1.15
2022-07-29T16:34:28.155Z,1.10
2022-07-29T16:36:54.813Z,1.20
2022-07-29T16:39:21.845Z,1.10
2022-07-29T16:41:48.496Z,1.38
2022-07-29T16:44:15.290Z,1.38
2022-07-29T16:46:44.555Z,1.40
2022-07-29T16:49:11.313Z,1.25
2022-07-29T16:51:39.066Z,1.40
2022-07-29T16:54:06.102Z,1.27
2022-07-29T16:56:33.912Z,1.10
2022-07-29T16:59:00.530Z,1.42
2022-07-29T17:01:27.836Z,1.42
2022-07-29T17:03:58.266Z,1.58
2022-07-29T17:06:26.749Z,1.52
2022-07-29T17:08:53.446Z,1.58
2022-07-29T17:11:20.394Z,1.42
2022-07-29T17:13:47.283Z,1.42
2022-07-29T17:16:13.981Z,1.70
2022-07-29T17:18:40.738Z,1.45
2022-07-29T17:21:07.420Z,1.60
2022-07-29T17:23:34.062Z,1.45
2022-07-29T17:26:00.712Z,1.88
2022-07-29T17:28:27.407Z,1.45
2022-07-29T17:30:54.052Z,1.30
2022-07-29T17:33:23.138Z,1.40
2022-07-29T17:35:49.804Z,1.38
2022-07-29T17:38:16.485Z,1.30
2022-07-29T17:40:43.309Z,1.40
2022-07-29T17:43:10.327Z,1.20
2022-07-29T17:45:50.028Z,1.20
2022-07-29T17:48:17.727Z,1.33
2022-07-29T17:50:44.373Z,1.15
2022-07-29T17:53:16.275Z,1.00
2022-07-29T17:55:46.574Z,1.00
2022-07-29T17:58:13.141Z,1.20
2022-07-29T18:00:39.881Z,1.20
2022-07-29T18:03:06.910Z,1.05
2022-07-29T18:05:33.778Z,1.00
2022-07-29T18:08:00.853Z,1.23
2022-07-29T18:10:28.185Z,0.93
2022-07-29T18:12:54.839Z,1.00
2022-07-29T18:15:21.599Z,0.90
2022-07-29T18:17:56.666Z,0.98
2022-07-29T18:20:28.637Z,1.25
2022-07-29T18:22:55.343Z,0.90
2022-07-29T18:25:25.219Z,1.25
2022-07-29T18:27:51.825Z,0.93
2022-07-29T18:30:18.615Z,0.90
2022-07-29T18:33:05.021Z,0.98
2022-07-29T18:35:32.273Z,0.98
2022-07-29T18:38:01.866Z,1.20
2022-07-29T18:40:30.139Z,1.13
2022-07-29T18:42:56.761Z,0.90
2022-07-29T18:45:28.364Z,0.98
2022-07-29T18:47:56.451Z,0.90
2022-07-29T18:50:28.257Z,0.80
2022-07-29T18:52:55.733Z,0.70
2022-07-29T18:55:23.702Z,0.77
2022-07-29T18:57:54.117Z,0.85
2022-07-29T19:00:24.116Z,0.80
2022-07-29T19:02:51.000Z,0.75
2022-07-29T19:06:13.632Z,0.75
2022-07-29T19:08:40.320Z,0.85
2022-07-29T19:11:07.788Z,0.90
2022-07-29T19:13:34.378Z,0.90
2022-07-29T19:16:01.048Z,0.80
2022-07-29T19:18:27.728Z,0.68
2022-07-29T19:20:54.515Z,0.80
2022-07-29T19:23:21.099Z,0.80
2022-07-29T19:25:53.106Z,0.80
2022-07-29T19:28:20.598Z,0.80
2022-07-29T19:30:47.230Z,0.68
2022-07-29T19:33:13.946Z,0.65
2022-07-29T19:35:40.580Z,0.70
2022-07-29T19:38:07.234Z,0.90
2022-07-29T19:40:34.404Z,0.85
2022-07-29T19:43:01.117Z,0.63
2022-07-29T19:45:27.873Z,0.75
2022-07-29T19:47:59.046Z,0.80
2022-07-29T19:50:27.567Z,0.60
2022-07-29T19:52:54.329Z,0.73
2022-07-29T19:55:21.088Z,0.90
2022-07-29T19:57:48.642Z,0.90
2022-07-29T20:00:15.547Z,0.80
2022-07-29T20:02:42.193Z,1.10
2022-07-29T20:05:09.955Z,0.90
2022-07-29T20:07:37.010Z,0.90
2022-07-29T20:10:04.732Z,0.93
2022-07-29T20:12:31.419Z,0.90
2022-07-29T20:14:58.192Z,0.80
2022-07-29T20:17:24.872Z,1.10
2022-07-29T20:19:51.743Z,1.08
2022-07-29T20:22:21.058Z,0.90
2022-07-29T20:24:48.208Z,1.05
2022-07-29T20:27:15.071Z,0.98
2022-07-29T20:29:41.799Z,1.00
2022-07-29T20:32:08.542Z,1.08
2022-07-29T20:34:35.383Z,1.10
2022-07-29T20:37:02.767Z,1.30
2022-07-29T20:39:29.685Z,1.10
2022-07-29T20:41:56.343Z,1.20
2022-07-29T20:44:22.986Z,1.17
2022-07-29T20:46:49.688Z,1.20
2022-07-29T20:49:16.388Z,1.30
2022-07-29T20:51:43.660Z,1.10
2022-07-29T20:54:11.243Z,1.20
2022-07-29T20:56:37.894Z,1.17
2022-07-29T20:59:04.670Z,1.27
2022-07-29T21:01:31.356Z,1.52
2022-07-29T21:03:58.145Z,1.30
2022-07-29T21:06:24.854Z,1.20
2022-07-29T21:08:51.429Z,1.25
2022-07-29T21:11:18.135Z,1.20
2022-07-29T21:14:04.654Z,1.40
2022-07-29T21:16:31.475Z,1.13
2022-07-29T21:18:58.111Z,1.20
2022-07-29T21:21:25.182Z,1.30
2022-07-29T21:23:51.817Z,1.40
2022-07-29T21:26:19.165Z,1.27
2022-07-29T21:28:45.887Z,1.13
2022-07-29T21:31:17.121Z,1.50
2022-07-29T21:33:46.668Z,1.45
2022-07-29T21:36:46.841Z,1.25
2022-07-29T21:39:00.272Z,1.40
2022-07-29T21:41:27.043Z,1.40
2022-07-29T21:43:54.064Z,1.30
2022-07-29T21:46:24.409Z,1.40
2022-07-29T21:48:51.741Z,1.15
2022-07-29T21:51:18.397Z,1.40
2022-07-29T21:53:45.033Z,1.10
2022-07-29T21:56:15.019Z,1.40
2022-07-29T21:58:41.999Z,1.30
2022-07-29T22:01:08.630Z,1.35
2022-07-29T22:03:35.373Z,1.25
2022-07-29T22:06:02.027Z,1.20
2022-07-29T22:08:28.678Z,1.60
2022-07-29T22:10:55.360Z,1.42
2022-07-29T22:13:22.028Z,1.30
2022-07-29T22:15:48.695Z,1.63
2022-07-29T22:18:20.748Z,1.20
2022-07-29T22:20:49.105Z,1.25
2022-07-29T22:23:15.781Z,1.50
2022-07-29T22:25:42.506Z,1.60
2022-07-29T22:28:09.091Z,1.17
2022-07-29T22:30:35.793Z,1.80
2022-07-29T22:33:02.494Z,1.63
2022-07-29T22:35:29.270Z,1.35
2022-07-29T22:37:55.937Z,1.55
2022-07-29T22:40:22.631Z,1.30
2022-07-29T22:42:57.462Z,1.35
2022-07-29T22:45:24.168Z,1.60
2022-07-29T22:47:54.653Z,1.42
2022-07-29T22:50:25.902Z,1.58
2022-07-29T22:52:52.564Z,1.58
2022-07-29T22:55:19.251Z,1.52
2022-07-29T22:57:45.888Z,1.67
2022-07-29T23:00:13.039Z,1.65
2022-07-29T23:02:39.687Z,1.40
2022-07-29T23:05:06.814Z,1.58
2022-07-29T23:07:33.470Z,1.92
2022-07-29T23:10:00.219Z,1.77
2022-07-29T23:12:27.068Z,1.65
2022-07-29T23:14:53.646Z,1.60
2022-07-29T23:17:20.373Z,1.80
2022-07-29T23:19:47.398Z,1.67
2022-07-29T23:22:14.098Z,1.70
2022-07-29T23:24:40.780Z,2.10
2022-07-29T23:27:07.597Z,1.65
2022-07-29T23:29:36.793Z,1.80
2022-07-29T23:32:03.759Z,1.90
2022-07-29T23:34:30.375Z,1.58
2022-07-29T23:36:57.106Z,1.77
2022-07-29T23:39:23.969Z,1.80
2022-07-29T23:41:50.709Z,1.90
2022-07-29T23:44:17.298Z,1.63
2022-07-29T23:46:44.052Z,1.98
2022-07-29T23:49:10.717Z,1.92
2022-07-29T23:51:37.380Z,1.67
2022-07-29T23:54:04.130Z,1.77
2022-07-29T23:56:30.804Z,1.90
2022-07-29T23:58:57.485Z,1.77
